Time;durP1;ratioP1;P1;durP2;ratioP2;P2;SDS_P1;SDS_P2;PMS_P1;PMS_P2;Temp;Humidity;BMP_temperature;BMP_pressure;BME280_temperature;BME280_humidity;BME280_pressure;Samples;Min_cycle;Max_cycle;Signal;HPM_P1;HPM_P2
2023/05/25 00:01:36;;;;;;;28.35;17.02;;;;;;;;;;6275701;28;20176;-62
2023/05/25 00:04:37;;;;;;;28.13;16.67;;;;;;;;;;6289712;28;20404;-60
2023/05/25 00:07:38;;;;;;;26.35;15.70;;;;;;;;;;6284140;28;20037;-59
2023/05/25 00:10:39;;;;;;;26.05;14.60;;;;;;;;;;6280963;28;20033;-56
2023/05/25 00:13:39;;;;;;;25.48;12.93;;;;;;;;;;6272316;28;20418;-60
2023/05/25 00:16:40;;;;;;;23.40;13.10;;;;;;;;;;6273020;28;20510;-61
2023/05/25 00:19:43;;;;;;;24.25;13.90;;;;;;;;;;6267951;28;20588;-58
2023/05/25 00:22:44;;;;;;;24.73;13.48;;;;;;;;;;6271710;28;20048;-61
2023/05/25 00:25:45;;;;;;;24.52;14.02;;;;;;;;;;6273572;28;20033;-61
2023/05/25 00:28:46;;;;;;;25.43;14.20;;;;;;;;;;6268335;28;20044;-60
2023/05/25 00:31:48;;;;;;;23.45;14.60;;;;;;;;;;6267769;28;20135;-59
2023/05/25 00:34:49;;;;;;;28.80;15.80;;;;;;;;;;6275837;28;20037;-61
2023/05/25 00:37:50;;;;;;;31.65;16.95;;;;;;;;;;6274577;28;20461;-58
2023/05/25 00:40:55;;;;;;;26.80;16.00;;;;;;;;;;6272256;28;20364;-55
2023/05/25 00:43:56;;;;;;;31.58;18.27;;;;;;;;;;6271654;28;20392;-60
2023/05/25 00:46:56;;;;;;;34.38;18.42;;;;;;;;;;6268295;28;20037;-61
2023/05/25 00:49:57;;;;;;;35.20;19.63;;;;;;;;;;6269393;28;20045;-59
2023/05/25 00:52:58;;;;;;;29.25;16.55;;;;;;;;;;6271152;28;20055;-60
2023/05/25 00:56:07;;;;;;;29.45;16.80;;;;;;;;;;6269000;28;20103;-61
2023/05/25 00:59:11;;;;;;;27.00;15.52;;;;;;;;;;6266267;28;20056;-61
2023/05/25 01:02:15;;;;;;;26.95;14.57;;;;;;;;;;6268169;28;20641;-60
2023/05/25 01:05:20;;;;;;;24.40;13.77;;;;;;;;;;6270416;28;20055;-60
2023/05/25 01:08:22;;;;;;;27.52;13.82;;;;;;;;;;6269765;28;20411;-56
2023/05/25 01:11:26;;;;;;;23.27;14.30;;;;;;;;;;6268707;28;20050;-61
2023/05/25 01:14:27;;;;;;;21.70;13.25;;;;;;;;;;6268964;28;20388;-57
2023/05/25 01:17:28;;;;;;;27.83;14.27;;;;;;;;;;6270611;28;20044;-58
2023/05/25 01:20:29;;;;;;;30.10;15.80;;;;;;;;;;6264441;28;20044;-60
2023/05/25 01:23:33;;;;;;;28.70;15.55;;;;;;;;;;6274409;28;20044;-61
2023/05/25 01:26:41;;;;;;;27.15;14.18;;;;;;;;;;6275196;28;20055;-62
2023/05/25 01:29:44;;;;;;;22.85;13.80;;;;;;;;;;6269128;28;20067;-61
2023/05/25 01:32:45;;;;;;;28.70;16.13;;;;;;;;;;6268955;28;20041;-61
2023/05/25 01:35:46;;;;;;;24.73;14.97;;;;;;;;;;6270593;28;20041;-61
2023/05/25 01:38:48;;;;;;;25.70;14.55;;;;;;;;;;6269502;28;20041;-59
2023/05/25 01:41:48;;;;;;;22.45;12.77;;;;;;;;;;6265415;28;20102;-61
2023/05/25 01:44:49;;;;;;;25.35;14.52;;;;;;;;;;6270147;28;20048;-58
2023/05/25 01:48:06;;;;;;;29.13;15.77;;;;;;;;;;6276993;28;20284;-60
2023/05/25 01:51:21;;;;;;;28.20;16.33;;;;;;;;;;6269594;28;20538;-61
2023/05/25 01:54:29;;;;;;;34.13;18.27;;;;;;;;;;6269042;28;20052;-61
2023/05/25 01:57:33;;;;;;;31.65;17.63;;;;;;;;;;6270440;28;20040;-60
2023/05/25 02:00:36;;;;;;;32.28;16.35;;;;;;;;;;6272448;28;20569;-61
2023/05/25 02:03:37;;;;;;;28.50;15.57;;;;;;;;;;6266930;28;20143;-60
2023/05/25 02:06:38;;;;;;;30.70;16.40;;;;;;;;;;6271162;28;20423;-61
2023/05/25 02:09:38;;;;;;;29.48;14.80;;;;;;;;;;6270227;28;20037;-60
2023/05/25 02:12:39;;;;;;;28.55;16.25;;;;;;;;;;6269641;28;20044;-56
2023/05/25 02:15:40;;;;;;;29.85;15.85;;;;;;;;;;6265859;28;20041;-61
2023/05/25 02:18:43;;;;;;;30.45;15.93;;;;;;;;;;6269502;28;20107;-61
2023/05/25 02:21:43;;;;;;;32.55;17.80;;;;;;;;;;6269315;28;20048;-61
2023/05/25 02:24:45;;;;;;;28.70;16.35;;;;;;;;;;6267465;28;20489;-62
2023/05/25 02:27:45;;;;;;;32.60;17.20;;;;;;;;;;6271089;28;20102;-61
2023/05/25 02:30:46;;;;;;;33.22;17.48;;;;;;;;;;6270875;28;20073;-57
2023/05/25 02:33:46;;;;;;;32.50;16.98;;;;;;;;;;6268683;28;20044;-60
2023/05/25 02:36:47;;;;;;;32.45;16.60;;;;;;;;;;6269368;28;20091;-61
2023/05/25 02:39:48;;;;;;;31.45;16.85;;;;;;;;;;6269319;28;20062;-60
2023/05/25 02:42:48;;;;;;;31.88;16.42;;;;;;;;;;6267235;28;20867;-61
2023/05/25 02:45:49;;;;;;;30.98;15.98;;;;;;;;;;6269614;28;20044;-61
2023/05/25 02:48:50;;;;;;;30.13;16.25;;;;;;;;;;6275978;28;22007;-59
2023/05/25 02:51:50;;;;;;;29.33;15.73;;;;;;;;;;6272119;28;20097;-61
2023/05/25 02:54:51;;;;;;;32.22;16.85;;;;;;;;;;6272488;28;20148;-60
2023/05/25 02:57:52;;;;;;;28.88;15.52;;;;;;;;;;6273346;28;20044;-60
2023/05/25 03:00:53;;;;;;;29.65;16.13;;;;;;;;;;6271959;28;20032;-59
2023/05/25 03:03:53;;;;;;;31.15;16.50;;;;;;;;;;6272359;28;20214;-61
2023/05/25 03:07:09;;;;;;;30.15;16.48;;;;;;;;;;6274057;28;20213;-54
2023/05/25 03:10:10;;;;;;;31.50;17.30;;;;;;;;;;6272543;28;20445;-61
2023/05/25 03:13:11;;;;;;;29.67;16.37;;;;;;;;;;6273362;28;20044;-60
2023/05/25 03:16:11;;;;;;;32.15;16.38;;;;;;;;;;6273173;28;20045;-61
2023/05/25 03:19:12;;;;;;;30.83;16.60;;;;;;;;;;6273949;28;20043;-61
2023/05/25 03:22:13;;;;;;;31.88;16.60;;;;;;;;;;6273554;28;20106;-61
2023/05/25 03:25:13;;;;;;;30.13;15.45;;;;;;;;;;6272271;28;20049;-60
2023/05/25 03:28:14;;;;;;;27.65;15.75;;;;;;;;;;6273486;28;20471;-59
2023/05/25 03:31:15;;;;;;;28.27;15.57;;;;;;;;;;6273088;28;20048;-60
2023/05/25 03:34:16;;;;;;;29.67;15.80;;;;;;;;;;6271687;28;20049;-58
2023/05/25 03:37:17;;;;;;;29.07;16.07;;;;;;;;;;6273145;28;20041;-59
2023/05/25 03:40:17;;;;;;;29.58;15.45;;;;;;;;;;6270135;28;20059;-61
2023/05/25 03:43:18;;;;;;;32.53;16.30;;;;;;;;;;6280455;28;20048;-61
2023/05/25 03:46:18;;;;;;;31.70;16.13;;;;;;;;;;6269915;28;20053;-61
2023/05/25 03:49:19;;;;;;;30.67;16.13;;;;;;;;;;6270185;28;20036;-60
2023/05/25 03:52:19;;;;;;;29.02;15.40;;;;;;;;;;6272356;28;20048;-62
2023/05/25 03:55:20;;;;;;;29.63;16.30;;;;;;;;;;6273345;28;20049;-62
2023/05/25 03:58:21;;;;;;;31.33;15.93;;;;;;;;;;6280571;28;20049;-60
2023/05/25 04:01:25;;;;;;;30.23;16.35;;;;;;;;;;6271742;28;20037;-62
2023/05/25 04:04:26;;;;;;;26.58;15.27;;;;;;;;;;6270765;28;20041;-62
2023/05/25 04:07:28;;;;;;;26.02;14.13;;;;;;;;;;6270991;28;20052;-61
2023/05/25 04:10:29;;;;;;;25.63;14.93;;;;;;;;;;6271434;28;20041;-61
2023/05/25 04:13:34;;;;;;;24.35;13.55;;;;;;;;;;6274874;28;20069;-62
2023/05/25 04:16:35;;;;;;;26.95;14.30;;;;;;;;;;6286350;28;20916;-61
2023/05/25 04:19:35;;;;;;;25.15;13.38;;;;;;;;;;6271618;28;20029;-61
2023/05/25 04:22:38;;;;;;;27.17;13.95;;;;;;;;;;6270880;28;21383;-61
2023/05/25 04:25:41;;;;;;;25.50;13.35;;;;;;;;;;6268986;28;20041;-61
2023/05/25 04:28:41;;;;;;;25.88;14.23;;;;;;;;;;6272245;28;20041;-60
2023/05/25 04:31:44;;;;;;;23.42;12.82;;;;;;;;;;6280289;28;20044;-56
2023/05/25 04:34:45;;;;;;;21.45;12.07;;;;;;;;;;6269378;28;20049;-61
2023/05/25 04:37:47;;;;;;;19.30;12.13;;;;;;;;;;6267610;28;20048;-62
2023/05/25 04:40:47;;;;;;;24.87;14.33;;;;;;;;;;6272068;28;20565;-61
2023/05/25 04:43:49;;;;;;;26.30;13.63;;;;;;;;;;6278539;28;20045;-59
2023/05/25 04:46:50;;;;;;;26.65;15.23;;;;;;;;;;6273569;28;20588;-61
2023/05/25 04:49:50;;;;;;;26.45;14.40;;;;;;;;;;6264008;28;20041;-58
2023/05/25 04:52:51;;;;;;;31.42;17.08;;;;;;;;;;6268738;28;20034;-61
2023/05/25 04:55:54;;;;;;;27.63;15.75;;;;;;;;;;6270630;28;20047;-61
2023/05/25 04:58:54;;;;;;;26.67;15.98;;;;;;;;;;6267634;28;20071;-61
2023/05/25 05:01:55;;;;;;;28.20;15.60;;;;;;;;;;6274583;28;20049;-62
2023/05/25 05:04:56;;;;;;;27.70;15.40;;;;;;;;;;6279465;28;20079;-62
2023/05/25 05:07:56;;;;;;;27.00;15.05;;;;;;;;;;6277516;28;20068;-62
2023/05/25 05:10:57;;;;;;;25.55;13.80;;;;;;;;;;6270328;28;20438;-60
2023/05/25 05:13:58;;;;;;;25.42;14.38;;;;;;;;;;6267565;28;20044;-62
2023/05/25 05:16:58;;;;;;;24.33;13.55;;;;;;;;;;6270611;28;20037;-61
2023/05/25 05:19:59;;;;;;;26.40;13.93;;;;;;;;;;6270683;28;20055;-58
2023/05/25 05:22:59;;;;;;;25.30;13.55;;;;;;;;;;6268654;28;20052;-61
2023/05/25 05:26:00;;;;;;;28.17;15.05;;;;;;;;;;6266785;28;20049;-60
2023/05/25 05:29:00;;;;;;;22.95;13.23;;;;;;;;;;6268508;28;20049;-60
2023/05/25 05:32:01;;;;;;;23.55;13.00;;;;;;;;;;6277736;28;20049;-61
2023/05/25 05:35:02;;;;;;;22.77;12.60;;;;;;;;;;6281222;28;20073;-61
2023/05/25 05:38:03;;;;;;;23.98;12.80;;;;;;;;;;6280307;28;20048;-61
2023/05/25 05:41:10;;;;;;;26.50;12.40;;;;;;;;;;6275405;28;20048;-61
2023/05/25 05:44:13;;;;;;;25.98;12.85;;;;;;;;;;6264813;28;20747;-61
2023/05/25 05:47:14;;;;;;;28.75;14.15;;;;;;;;;;6278352;28;20784;-61
2023/05/25 05:50:15;;;;;;;25.73;13.65;;;;;;;;;;6286468;28;20396;-59
2023/05/25 05:53:15;;;;;;;29.55;14.90;;;;;;;;;;6266237;28;20044;-59
2023/05/25 05:56:17;;;;;;;27.15;14.85;;;;;;;;;;6265349;28;20053;-61
2023/05/25 05:59:20;;;;;;;23.67;13.68;;;;;;;;;;6266863;28;20072;-60
2023/05/25 06:02:21;;;;;;;22.92;12.48;;;;;;;;;;6266146;28;20118;-60
2023/05/25 06:05:22;;;;;;;22.88;12.45;;;;;;;;;;6267329;28;20045;-62
2023/05/25 06:08:22;;;;;;;24.73;13.00;;;;;;;;;;6266999;28;20137;-61
2023/05/25 06:11:23;;;;;;;25.70;13.60;;;;;;;;;;6268191;28;20057;-58
2023/05/25 06:14:24;;;;;;;22.52;13.30;;;;;;;;;;6266950;28;20060;-60
2023/05/25 06:17:24;;;;;;;22.13;12.98;;;;;;;;;;6263702;28;20048;-56
2023/05/25 06:20:25;;;;;;;24.30;13.38;;;;;;;;;;6267903;28;20041;-59
2023/05/25 06:23:26;;;;;;;27.15;14.07;;;;;;;;;;6269267;28;20052;-61
2023/05/25 06:26:27;;;;;;;29.43;14.00;;;;;;;;;;6269283;28;20083;-58
2023/05/25 06:33:42;;;;;;;22.45;12.85;;;;;;;;;;6291879;28;20042;-56
2023/05/25 06:36:43;;;;;;;27.40;15.60;;;;;;;;;;6300252;28;20455;-61
2023/05/25 06:39:43;;;;;;;31.48;15.93;;;;;;;;;;6299104;28;20052;-58
2023/05/25 06:42:44;;;;;;;31.13;16.98;;;;;;;;;;6294782;28;20052;-62
2023/05/25 06:45:45;;;;;;;27.25;15.60;;;;;;;;;;6298385;28;20075;-59
2023/05/25 06:48:46;;;;;;;28.33;16.55;;;;;;;;;;6298245;28;20079;-62
2023/05/25 06:51:47;;;;;;;28.92;17.88;;;;;;;;;;6299591;28;20058;-60
2023/05/25 06:54:48;;;;;;;29.57;16.50;;;;;;;;;;6299385;28;20056;-61
2023/05/25 06:57:49;;;;;;;28.27;16.67;;;;;;;;;;6295015;28;20044;-61
2023/05/25 07:00:49;;;;;;;33.80;18.33;;;;;;;;;;6298389;28;20044;-61
2023/05/25 07:03:50;;;;;;;36.25;19.60;;;;;;;;;;6297392;28;20036;-61
2023/05/25 07:06:51;;;;;;;35.53;19.65;;;;;;;;;;6299160;28;20047;-59
2023/05/25 07:09:52;;;;;;;35.45;18.73;;;;;;;;;;6297110;28;20049;-61
2023/05/25 07:12:52;;;;;;;34.15;17.80;;;;;;;;;;6295096;28;20040;-61
2023/05/25 07:15:53;;;;;;;35.60;18.02;;;;;;;;;;6301745;28;20395;-61
2023/05/25 07:18:53;;;;;;;26.83;15.68;;;;;;;;;;6294342;28;20051;-61
2023/05/25 07:21:54;;;;;;;39.88;17.20;;;;;;;;;;6291886;28;20056;-60
2023/05/25 07:24:54;;;;;;;28.08;16.55;;;;;;;;;;6291140;28;20052;-61
2023/05/25 07:27:55;;;;;;;30.80;16.90;;;;;;;;;;6298030;28;20067;-61
2023/05/25 07:30:56;;;;;;;35.47;17.42;;;;;;;;;;6296981;28;20098;-61
2023/05/25 07:33:56;;;;;;;30.50;16.80;;;;;;;;;;6297848;28;20051;-61
2023/05/25 07:36:57;;;;;;;28.42;16.15;;;;;;;;;;6297221;28;20048;-61
2023/05/25 07:39:58;;;;;;;40.08;18.13;;;;;;;;;;6295753;28;20052;-61
2023/05/25 07:42:58;;;;;;;36.72;18.88;;;;;;;;;;6292785;28;20052;-62
2023/05/25 07:46:01;;;;;;;36.45;18.52;;;;;;;;;;6297035;28;20079;-61
2023/05/25 07:49:02;;;;;;;30.85;16.85;;;;;;;;;;6296210;28;20140;-61
2023/05/25 07:52:04;;;;;;;33.70;17.63;;;;;;;;;;6293541;28;20040;-61
2023/05/25 07:55:05;;;;;;;;;;;;;;;;;;6297401;28;20058;-60
2023/05/25 07:58:06;;;;;;;36.70;17.73;;;;;;;;;;6295346;28;19923;-60
2023/05/25 08:01:06;;;;;;;30.95;17.23;;;;;;;;;;6294214;28;20357;-60
2023/05/25 08:04:07;;;;;;;30.90;18.38;;;;;;;;;;6295367;28;20130;-61
2023/05/25 08:07:08;;;;;;;33.50;19.20;;;;;;;;;;6296068;28;20048;-60
2023/05/25 08:10:08;;;;;;;34.42;18.90;;;;;;;;;;6295244;28;20130;-60
2023/05/25 08:13:09;;;;;;;32.13;17.58;;;;;;;;;;6291949;28;20051;-59
2023/05/25 08:16:10;;;;;;;33.97;19.05;;;;;;;;;;6296508;28;20490;-60
2023/05/25 08:19:11;;;;;;;34.63;19.27;;;;;;;;;;6292770;28;20052;-60
2023/05/25 08:22:11;;;;;;;34.33;19.15;;;;;;;;;;6295208;28;20209;-61
2023/05/25 08:25:12;;;;;;;34.67;18.70;;;;;;;;;;6295086;28;20036;-61
2023/05/25 08:28:13;;;;;;;34.63;18.98;;;;;;;;;;6293659;28;20040;-61
2023/05/25 08:31:13;;;;;;;34.03;18.88;;;;;;;;;;6301993;28;20048;-61
2023/05/25 08:34:15;;;;;;;36.10;18.75;;;;;;;;;;6294539;28;20044;-60
2023/05/25 08:37:16;;;;;;;31.25;17.65;;;;;;;;;;6291971;28;20159;-58
2023/05/25 08:40:18;;;;;;;36.22;19.38;;;;;;;;;;6295141;28;20093;-59
2023/05/25 08:43:18;;;;;;;35.77;19.10;;;;;;;;;;6293583;28;20552;-60
2023/05/25 08:46:28;;;;;;;38.25;18.73;;;;;;;;;;6294856;28;20076;-58
2023/05/25 08:49:30;;;;;;;33.95;17.45;;;;;;;;;;6292584;28;20051;-60
2023/05/25 08:52:33;;;;;;;33.78;17.17;;;;;;;;;;6291986;28;20045;-61
2023/05/25 08:55:36;;;;;;;34.20;18.08;;;;;;;;;;6293162;28;20487;-57
2023/05/25 08:58:44;;;;;;;32.78;17.60;;;;;;;;;;6294439;28;20513;-60
2023/05/25 09:01:48;;;;;;;31.27;16.55;;;;;;;;;;6293054;28;20407;-60
2023/05/25 09:04:49;;;;;;;30.02;16.65;;;;;;;;;;6293821;28;20094;-61
2023/05/25 09:07:50;;;;;;;31.35;17.17;;;;;;;;;;6293240;28;20044;-58
2023/05/25 09:10:52;;;;;;;28.40;17.17;;;;;;;;;;6293610;28;20036;-59
2023/05/25 09:13:53;;;;;;;31.20;17.15;;;;;;;;;;6294649;28;20032;-61
2023/05/25 09:16:54;;;;;;;33.35;17.50;;;;;;;;;;6294527;28;20036;-61
2023/05/25 09:19:55;;;;;;;32.25;17.50;;;;;;;;;;6292658;28;20032;-59
2023/05/25 09:22:58;;;;;;;31.35;16.75;;;;;;;;;;6291253;28;20503;-59
2023/05/25 09:26:00;;;;;;;33.40;17.85;;;;;;;;;;6292618;28;20040;-64
2023/05/25 09:29:00;;;;;;;29.58;17.23;;;;;;;;;;6294680;28;20469;-63
2023/05/25 09:32:04;;;;;;;33.30;18.50;;;;;;;;;;6299741;28;20099;-63
2023/05/25 09:35:09;;;;;;;36.53;20.92;;;;;;;;;;6294693;28;20044;-61
2023/05/25 09:38:13;;;;;;;34.10;20.38;;;;;;;;;;6294645;28;20051;-63
2023/05/25 09:41:13;;;;;;;35.92;21.40;;;;;;;;;;6291269;28;20055;-63
2023/05/25 09:44:14;;;;;;;38.95;22.00;;;;;;;;;;6292551;28;20067;-64
2023/05/25 09:47:16;;;;;;;37.42;22.42;;;;;;;;;;6292434;28;20474;-60
2023/05/25 09:50:18;;;;;;;40.17;22.23;;;;;;;;;;6293516;28;20492;-60
2023/05/25 09:53:19;;;;;;;39.38;21.95;;;;;;;;;;6292688;28;20051;-62
2023/05/25 09:56:20;;;;;;;37.83;20.98;;;;;;;;;;6294635;28;20052;-63
2023/05/25 09:59:22;;;;;;;37.80;21.13;;;;;;;;;;6295155;28;20454;-62
2023/05/25 10:02:22;;;;;;;36.85;19.85;;;;;;;;;;6294961;28;20045;-62
2023/05/25 10:05:23;;;;;;;33.22;18.35;;;;;;;;;;6293871;28;20052;-64
2023/05/25 10:08:24;;;;;;;33.53;18.00;;;;;;;;;;6294321;28;20770;-64
2023/05/25 10:11:26;;;;;;;34.08;19.08;;;;;;;;;;6294262;28;20058;-62
2023/05/25 10:14:28;;;;;;;31.92;18.38;;;;;;;;;;6293263;28;20075;-62
2023/05/25 10:17:31;;;;;;;35.05;18.73;;;;;;;;;;6292514;28;20133;-61
2023/05/25 10:20:32;;;;;;;34.70;18.65;;;;;;;;;;6294339;28;20143;-61
2023/05/25 10:23:41;;;;;;;34.95;18.77;;;;;;;;;;6292165;28;20376;-61
2023/05/25 10:26:48;;;;;;;42.97;20.98;;;;;;;;;;6292583;28;20476;-61
2023/05/25 10:29:51;;;;;;;37.70;20.83;;;;;;;;;;6294409;28;20405;-61
2023/05/25 10:32:53;;;;;;;38.40;20.58;;;;;;;;;;6290167;28;20056;-62
2023/05/25 10:35:54;;;;;;;38.30;20.90;;;;;;;;;;6290649;28;20427;-64
2023/05/25 10:38:56;;;;;;;35.83;20.38;;;;;;;;;;6293393;28;20036;-62
2023/05/25 10:41:57;;;;;;;34.75;19.85;;;;;;;;;;6291320;28;20044;-62
2023/05/25 10:44:59;;;;;;;39.72;22.67;;;;;;;;;;6292266;28;20047;-64
2023/05/25 10:47:59;;;;;;;34.80;20.00;;;;;;;;;;6289780;28;20395;-63
2023/05/25 10:51:00;;;;;;;34.83;19.25;;;;;;;;;;6292814;28;20044;-61
2023/05/25 10:54:01;;;;;;;39.53;20.33;;;;;;;;;;6293542;28;20059;-63
2023/05/25 10:57:16;;;;;;;36.25;18.50;;;;;;;;;;6292073;28;20044;-61
2023/05/25 11:00:18;;;;;;;34.00;19.10;;;;;;;;;;6291944;28;20469;-62
2023/05/25 11:03:19;;;;;;;34.40;18.00;;;;;;;;;;6292202;28;20048;-60
2023/05/25 11:06:36;;;;;;;33.42;18.95;;;;;;;;;;6292191;28;20047;-65
2023/05/25 11:09:42;;;;;;;31.42;18.10;;;;;;;;;;6294428;28;20055;-63
2023/05/25 11:12:45;;;;;;;32.50;18.55;;;;;;;;;;6300046;28;20044;-62
2023/05/25 11:15:47;;;;;;;33.25;19.67;;;;;;;;;;6298215;28;20059;-62
2023/05/25 11:18:50;;;;;;;33.50;18.73;;;;;;;;;;6298313;28;20058;-61
2023/05/25 11:21:53;;;;;;;34.15;19.13;;;;;;;;;;6296865;28;20048;-61
2023/05/25 11:24:57;;;;;;;33.17;19.10;;;;;;;;;;6296345;28;20048;-62
2023/05/25 11:28:03;;;;;;;34.58;19.27;;;;;;;;;;6296753;28;20052;-62
2023/05/25 11:31:05;;;;;;;33.65;19.25;;;;;;;;;;6293780;28;21803;-62
2023/05/25 11:34:05;;;;;;;33.20;19.73;;;;;;;;;;6297044;28;20415;-59
2023/05/25 11:37:08;;;;;;;32.53;19.15;;;;;;;;;;6298200;28;20068;-61
2023/05/25 11:40:09;;;;;;;35.10;20.05;;;;;;;;;;6293072;28;20762;-61
2023/05/25 11:43:11;;;;;;;39.28;22.30;;;;;;;;;;6297425;28;20468;-60
2023/05/25 11:46:12;;;;;;;40.90;24.00;;;;;;;;;;6293758;28;20498;-61
2023/05/25 11:49:13;;;;;;;40.00;22.60;;;;;;;;;;6295071;28;20128;-62
2023/05/25 11:52:17;;;;;;;38.80;21.27;;;;;;;;;;6282194;28;20498;-62
2023/05/25 11:55:18;;;;;;;35.33;20.98;;;;;;;;;;6281029;28;20407;-61
2023/05/25 11:58:19;;;;;;;40.58;21.95;;;;;;;;;;6276234;28;20102;-60
2023/05/25 12:01:21;;;;;;;41.57;24.23;;;;;;;;;;6277486;28;20062;-59
2023/05/25 12:04:22;;;;;;;;;;;;;;;;;;6283946;28;20515;-61
2023/05/25 12:07:24;;;;;;;42.80;23.05;;;;;;;;;;6281198;28;20033;-59
2023/05/25 12:10:25;;;;;;;46.55;22.70;;;;;;;;;;6282046;28;20053;-59
2023/05/25 12:13:26;;;;;;;38.45;22.05;;;;;;;;;;6280457;28;20052;-61
2023/05/25 12:16:27;;;;;;;37.88;21.70;;;;;;;;;;6278764;28;20042;-61
2023/05/25 12:19:28;;;;;;;38.30;23.23;;;;;;;;;;6279058;28;20056;-62
2023/05/25 12:22:28;;;;;;;37.83;22.35;;;;;;;;;;6275814;28;20414;-61
2023/05/25 12:25:29;;;;;;;35.15;21.88;;;;;;;;;;6278230;28;20044;-60
2023/05/25 12:28:29;;;;;;;36.15;21.50;;;;;;;;;;6279569;28;20589;-58
2023/05/25 12:31:35;;;;;;;36.90;20.80;;;;;;;;;;6275499;28;20130;-59
2023/05/25 12:34:35;;;;;;;33.80;19.95;;;;;;;;;;6277356;28;20051;-60
2023/05/25 12:37:36;;;;;;;35.78;21.55;;;;;;;;;;6277570;28;20052;-59
2023/05/25 12:40:36;;;;;;;35.50;22.23;;;;;;;;;;6279700;28;20064;-60
2023/05/25 12:43:42;;;;;;;33.70;21.40;;;;;;;;;;6273608;28;20299;-61
2023/05/25 12:46:43;;;;;;;34.33;21.67;;;;;;;;;;6277707;28;20493;-60
2023/05/25 12:49:45;;;;;;;36.53;22.38;;;;;;;;;;6278844;28;20052;-62
2023/05/25 12:52:48;;;;;;;34.03;21.13;;;;;;;;;;6274993;28;20118;-61
2023/05/25 12:55:48;;;;;;;35.10;21.88;;;;;;;;;;6278933;28;20055;-62
2023/05/25 12:58:49;;;;;;;41.25;24.50;;;;;;;;;;6280991;28;20051;-61
2023/05/25 13:01:50;;;;;;;37.55;22.23;;;;;;;;;;6274795;28;20057;-59
2023/05/25 13:04:50;;;;;;;31.00;19.48;;;;;;;;;;6280721;28;20048;-61
2023/05/25 13:07:54;;;;;;;38.33;21.27;;;;;;;;;;6278508;28;20469;-61
2023/05/25 13:10:55;;;;;;;32.00;19.95;;;;;;;;;;6275385;28;20632;-61
2023/05/25 13:13:55;;;;;;;33.40;19.77;;;;;;;;;;6270824;28;20177;-58
2023/05/25 13:16:56;;;;;;;36.92;20.30;;;;;;;;;;6278171;28;20154;-61
2023/05/25 13:19:57;;;;;;;30.58;19.55;;;;;;;;;;6260302;28;20411;-62
2023/05/25 13:22:57;;;;;;;28.48;18.90;;;;;;;;;;6274001;28;20060;-58
2023/05/25 13:25:58;;;;;;;35.17;20.88;;;;;;;;;;6277765;28;20063;-60
2023/05/25 13:28:58;;;;;;;31.70;21.83;;;;;;;;;;6274891;28;20048;-63
2023/05/25 13:31:59;;;;;;;33.05;21.73;;;;;;;;;;6273801;28;20079;-61
2023/05/25 13:35:00;;;;;;;30.38;20.52;;;;;;;;;;6275913;28;20052;-63
2023/05/25 13:38:01;;;;;;;27.40;17.58;;;;;;;;;;6278997;28;20050;-62
2023/05/25 13:41:02;;;;;;;30.50;17.88;;;;;;;;;;6269413;28;20287;-60
2023/05/25 13:44:02;;;;;;;31.27;20.07;;;;;;;;;;6274908;28;20064;-60
2023/05/25 13:47:03;;;;;;;31.75;19.98;;;;;;;;;;6263875;28;20326;-62
2023/05/25 13:50:04;;;;;;;27.83;18.30;;;;;;;;;;6277728;28;20047;-63
2023/05/25 13:53:05;;;;;;;30.70;19.52;;;;;;;;;;6272531;28;20067;-60
2023/05/25 13:56:06;;;;;;;27.55;19.13;;;;;;;;;;6278353;28;20036;-62
2023/05/25 13:59:06;;;;;;;28.95;19.02;;;;;;;;;;6278117;28;20454;-62
2023/05/25 14:02:07;;;;;;;30.05;19.60;;;;;;;;;;6274899;28;20048;-60
2023/05/25 14:05:09;;;;;;;28.13;18.52;;;;;;;;;;6279687;28;20150;-60
2023/05/25 14:08:11;;;;;;;27.83;18.73;;;;;;;;;;6261750;28;20068;-59
2023/05/25 14:11:11;;;;;;;33.03;21.30;;;;;;;;;;6280009;28;20533;-62
2023/05/25 14:14:12;;;;;;;32.90;19.85;;;;;;;;;;6276902;28;20044;-59
2023/05/25 14:17:13;;;;;;;31.02;20.17;;;;;;;;;;6277775;28;20052;-61
2023/05/25 14:20:19;;;;;;;30.25;20.27;;;;;;;;;;6281846;28;20522;-62
2023/05/25 14:23:20;;;;;;;32.20;20.75;;;;;;;;;;6275250;28;20809;-62
2023/05/25 14:26:21;;;;;;;32.95;19.98;;;;;;;;;;6280303;28;20054;-62
2023/05/25 14:29:22;;;;;;;30.27;19.73;;;;;;;;;;6275052;28;20049;-62
2023/05/25 14:32:22;;;;;;;32.05;20.05;;;;;;;;;;6272066;28;20068;-61
2023/05/25 14:35:23;;;;;;;30.23;19.92;;;;;;;;;;6280454;28;20491;-62
2023/05/25 14:38:24;;;;;;;31.40;20.52;;;;;;;;;;6282215;28;20032;-62
2023/05/25 14:41:24;;;;;;;33.70;22.00;;;;;;;;;;6280066;28;21141;-61
2023/05/25 14:44:25;;;;;;;34.78;22.15;;;;;;;;;;6279727;28;20052;-57
2023/05/25 14:47:25;;;;;;;36.10;23.52;;;;;;;;;;6285571;28;20049;-61
2023/05/25 14:50:26;;;;;;;40.97;23.55;;;;;;;;;;6283333;28;20135;-61
2023/05/25 14:53:27;;;;;;;39.17;23.73;;;;;;;;;;6279774;28;20045;-60
2023/05/25 14:56:28;;;;;;;40.67;24.35;;;;;;;;;;6282757;28;20050;-59
2023/05/25 14:59:28;;;;;;;41.35;24.13;;;;;;;;;;6280781;28;20636;-61
2023/05/25 15:02:29;;;;;;;39.63;24.13;;;;;;;;;;6263161;28;20052;-63
2023/05/25 15:05:29;;;;;;;41.72;24.45;;;;;;;;;;6281423;28;20057;-60
2023/05/25 15:08:30;;;;;;;40.83;24.52;;;;;;;;;;6286020;28;20132;-60
2023/05/25 15:11:30;;;;;;;39.15;25.25;;;;;;;;;;6285558;28;20071;-61
2023/05/25 15:14:31;;;;;;;38.50;23.80;;;;;;;;;;6284377;28;20049;-62
2023/05/25 15:17:32;;;;;;;37.40;24.25;;;;;;;;;;6285571;28;20457;-59
2023/05/25 15:20:33;;;;;;;40.22;25.23;;;;;;;;;;6286401;28;20461;-60
2023/05/25 15:23:33;;;;;;;41.40;24.95;;;;;;;;;;6291923;28;20048;-61
2023/05/25 15:26:34;;;;;;;36.70;23.15;;;;;;;;;;6317104;28;20572;-62
2023/05/25 15:29:35;;;;;;;37.60;22.35;;;;;;;;;;6300516;28;20231;-58
2023/05/25 15:32:35;;;;;;;36.00;21.73;;;;;;;;;;6300496;28;20048;-61
2023/05/25 15:35:36;;;;;;;35.50;21.70;;;;;;;;;;6297625;28;20049;-61
2023/05/25 15:38:36;;;;;;;34.15;20.48;;;;;;;;;;6297741;28;20128;-62
2023/05/25 15:41:37;;;;;;;32.15;20.25;;;;;;;;;;6296042;28;20465;-62
2023/05/25 15:44:37;;;;;;;30.65;18.48;;;;;;;;;;6292986;28;20045;-58
2023/05/25 15:47:38;;;;;;;28.27;17.98;;;;;;;;;;6297257;28;20059;-62
2023/05/25 15:50:39;;;;;;;34.53;19.20;;;;;;;;;;6293892;28;20048;-62
2023/05/25 15:53:39;;;;;;;31.90;19.88;;;;;;;;;;6314817;28;20048;-62
2023/05/25 15:56:40;;;;;;;30.98;17.98;;;;;;;;;;6302076;28;20044;-62
2023/05/25 15:59:41;;;;;;;29.83;18.48;;;;;;;;;;6297913;28;20064;-60
2023/05/25 16:02:41;;;;;;;29.85;18.90;;;;;;;;;;6298409;28;20490;-62
2023/05/25 16:05:42;;;;;;;32.42;18.83;;;;;;;;;;6299776;28;20050;-60
2023/05/25 16:08:43;;;;;;;35.00;20.33;;;;;;;;;;6298583;28;20070;-62
2023/05/25 16:11:43;;;;;;;35.95;20.77;;;;;;;;;;6298613;28;20045;-60
2023/05/25 16:14:44;;;;;;;38.53;22.48;;;;;;;;;;6299142;28;20127;-61
2023/05/25 16:17:45;;;;;;;37.28;21.80;;;;;;;;;;6296922;28;20139;-61
2023/05/25 16:20:45;;;;;;;35.00;21.27;;;;;;;;;;6297440;28;20043;-59
2023/05/25 16:23:46;;;;;;;36.05;20.95;;;;;;;;;;6299918;28;20146;-62
2023/05/25 16:26:47;;;;;;;29.00;19.67;;;;;;;;;;6296601;28;20040;-62
2023/05/25 16:29:47;;;;;;;35.00;20.00;;;;;;;;;;6295766;28;20113;-62
2023/05/25 16:32:48;;;;;;;33.17;21.70;;;;;;;;;;6294994;28;20499;-62
2023/05/25 16:35:49;;;;;;;32.05;20.08;;;;;;;;;;6290789;28;20044;-61
2023/05/25 16:38:50;;;;;;;33.05;20.30;;;;;;;;;;6294907;28;20048;-61
2023/05/25 16:41:50;;;;;;;33.22;20.83;;;;;;;;;;6299169;28;20459;-63
2023/05/25 16:44:51;;;;;;;34.63;21.30;;;;;;;;;;6295622;28;20040;-60
2023/05/25 16:47:51;;;;;;;32.13;19.77;;;;;;;;;;6295830;28;20051;-62
2023/05/25 16:50:52;;;;;;;34.08;20.42;;;;;;;;;;6298506;28;20090;-62
2023/05/25 16:53:53;;;;;;;31.92;20.63;;;;;;;;;;6293212;28;20051;-61
2023/05/25 16:56:54;;;;;;;34.67;21.88;;;;;;;;;;6303478;28;20438;-62
2023/05/25 16:59:54;;;;;;;36.95;21.02;;;;;;;;;;6296760;28;20110;-62
2023/05/25 17:02:55;;;;;;;37.58;22.50;;;;;;;;;;6296750;28;20220;-61
2023/05/25 17:05:56;;;;;;;32.95;19.52;;;;;;;;;;6297536;28;20036;-62
2023/05/25 17:08:57;;;;;;;32.35;18.67;;;;;;;;;;6292677;28;20427;-62
2023/05/25 17:11:59;;;;;;;28.70;18.88;;;;;;;;;;6298454;28;20589;-59
2023/05/25 17:15:00;;;;;;;29.45;18.85;;;;;;;;;;6296612;28;20043;-62
2023/05/25 17:18:01;;;;;;;31.23;19.30;;;;;;;;;;6295312;28;20083;-61
2023/05/25 17:21:02;;;;;;;31.35;19.65;;;;;;;;;;6308403;28;20061;-61
2023/05/25 17:24:03;;;;;;;32.38;21.10;;;;;;;;;;6309924;28;20084;-61
2023/05/25 17:27:04;;;;;;;41.88;27.77;;;;;;;;;;6303850;28;20113;-62
2023/05/25 17:30:05;;;;;;;36.30;25.30;;;;;;;;;;6308597;28;20052;-63
2023/05/25 17:33:06;;;;;;;;;;;;;;;;;;6306654;28;20501;-62
2023/05/25 17:36:07;;;;;;;30.77;18.90;;;;;;;;;;6303108;28;19931;-63
2023/05/25 17:39:08;;;;;;;32.58;19.42;;;;;;;;;;6304355;28;20075;-63
2023/05/25 17:42:08;;;;;;;32.90;20.50;;;;;;;;;;6308274;28;20048;-61